| time (UTC) | temp F | wind direction | speed MPH | gust MPH | rain 1hr in | rain 24hr in | rain mn in | humidity % | barometer mb |
| 20260904083335 | 66 | 87 | 4.0 | 6.0 | 0.00 | 0.00 | 0.00 | 91 | 1010.7 |
| 20260904082830 | 66 | 73 | 5.0 | 10.0 | 0.00 | 0.00 | 0.00 | 91 | 1010.9 |
| 20260904082558 | 65 | 82 | 6.0 | 10.0 | 0.00 | 0.00 | 0.00 | 91 | 1010.9 |
| 20260904082320 | 65 | 68 | 6.0 | 10.0 | 0.00 | 0.00 | 0.00 | 92 | 1011.0 |
| 20260904081311 | 65 | 80 | 7.0 | 10.0 | 0.00 | 0.00 | 0.00 | 91 | 1011.0 |
| 20260904080808 | 65 | 63 | 7.0 | 11.0 | 0.00 | 0.00 | 0.00 | 91 | 1011.1 |
| 20260904080802 | 65 | 68 | 8.0 | 12.0 | 0.00 | 0.00 | 0.00 | 91 | 1011.2 |
| 20260904075753 | 65 | 55 | 9.0 | 13.0 | 0.00 | 0.00 | 0.00 | 92 | 1011.3 |
| 20260904075247 | 65 | 73 | 10.0 | 14.0 | 0.00 | 0.00 | 0.00 | 92 | 1011.2 |
| 20260904074742 | 65 | 65 | 11.0 | 15.0 | 0.00 | 0.00 | 0.00 | 92 | 1011.3 |
| 20260904074237 | 65 | 39 | 12.0 | 19.0 | 0.00 | 0.00 | 0.00 | 92 | 1011.6 |
| 20260904073737 | 65 | 52 | 13.0 | 19.0 | 0.00 | 0.00 | 0.00 | 93 | 1011.6 |
| 20260904073507 | 65 | 52 | 13.0 | 22.0 | 0.00 | 0.00 | 0.00 | 93 | 1011.9 |
| 20260904072736 | 65 | 18 | 13.0 | 22.0 | 0.00 | 0.00 | 0.00 | 92 | 1011.8 |
| 20260904072237 | 65 | 11 | 12.0 | 20.0 | 0.00 | 0.00 | 0.00 | 92 | 1011.9 |
| 20260904071737 | 65 | 1 | 11.0 | 18.0 | 0.00 | 0.00 | 0.00 | 92 | 1012.2 |
| 20260904071238 | 65 | 1 | 8.0 | 15.0 | 0.00 | 0.00 | 0.00 | 92 | 1012.0 |
| 20260904070737 | 65 | 23 | 7.0 | 12.0 | 0.00 | 0.00 | 0.00 | 93 | 1011.3 |
| 20260904070242 | 65 | 60 | 4.0 | 6.0 | 0.00 | 0.00 | 0.00 | 92 | 1010.4 |
| 20260904070237 | 65 | 55 | 5.0 | 9.0 | 0.00 | 0.00 | 0.00 | 92 | 1010.8 |
| 20260904065237 | 65 | 58 | 5.0 | 9.0 | 0.00 | 0.00 | 0.00 | 92 | 1010.4 |
| 20260904064738 | 65 | 75 | 5.0 | 9.0 | 0.00 | 0.00 | 0.00 | 92 | 1010.4 |
| 20260904064238 | 64 | 62 | 4.0 | 9.0 | 0.00 | 0.00 | 0.00 | 92 | 1010.3 |
| 20260904063732 | 64 | 93 | 4.0 | 7.0 | 0.00 | 0.00 | 0.00 | 92 | 1010.3 |
| 20260904063233 | 65 | 72 | 4.0 | 8.0 | 0.00 | 0.00 | 0.00 | 92 | 1010.3 |
| 20260904062733 | 64 | 80 | 5.0 | 8.0 | 0.00 | 0.00 | 0.00 | 92 | 1010.4 |
| 20260904062233 | 64 | 78 | 5.0 | 8.0 | 0.00 | 0.00 | 0.00 | 92 | 1010.5 |
| 20260904061733 | 64 | 86 | 5.0 | 8.0 | 0.00 | 0.00 | 0.00 | 92 | 1010.6 |
| 20260904061234 | 64 | 75 | 5.0 | 9.0 | 0.00 | 0.00 | 0.00 | 92 | 1010.8 |
| 20260904060734 | 64 | 81 | 5.0 | 9.0 | 0.00 | 0.00 | 0.00 | 93 | 1010.7 |
| 20260904060235 | 64 | 59 | 5.0 | 8.0 | 0.00 | 0.00 | 0.00 | 92 | 1010.7 |
| 20260904055735 | 64 | 54 | 5.0 | 8.0 | 0.00 | 0.00 | 0.00 | 92 | 1010.7 |
| 20260904055231 | 64 | 93 | 5.0 | 8.0 | 0.00 | 0.00 | 0.00 | 92 | 1010.5 |
| 20260904054731 | 64 | 104 | 6.0 | 10.0 | 0.00 | 0.00 | 0.00 | 92 | 1010.4 |
| 20260904054231 | 64 | 71 | 6.0 | 10.0 | 0.00 | 0.00 | 0.00 | 92 | 1010.5 |
| 20260904054000 | 65 | 62 | 6.0 | 9.0 | 0.00 | 0.00 | 0.00 | 92 | 1010.6 |
| 20260904053502 | 65 | 65 | 7.0 | 9.0 | 0.00 | 0.00 | 0.00 | 92 | 1010.6 |
| 20260904052728 | 65 | 60 | 7.0 | 10.0 | 0.00 | 0.00 | 0.00 | 92 | 1010.5 |
| 20260904052230 | 65 | 86 | 6.0 | 10.0 | 0.00 | 0.00 | 0.00 | 92 | 1010.5 |
| 20260904051728 | 65 | 74 | 7.0 | 11.0 | 0.00 | 0.00 | 0.00 | 92 | 1010.6 |
| 20260904051230 | 65 | 76 | 7.0 | 11.0 | 0.00 | 0.00 | 0.00 | 92 | 1010.5 |
| 20260904050724 | 65 | 58 | 7.0 | 11.0 | 0.00 | 0.00 | 0.00 | 92 | 1010.4 |
| 20260904050226 | 65 | 79 | 7.0 | 10.0 | 0.00 | 0.00 | 0.00 | 92 | 1010.3 |
| 20260904045725 | 65 | 118 | 6.0 | 11.0 | 0.00 | 0.00 | 0.00 | 92 | 1010.4 |
| 20260904045224 | 65 | 50 | 6.0 | 11.0 | 0.00 | 0.00 | 0.00 | 91 | 1010.6 |
| 20260904044724 | 65 | 65 | 5.0 | 9.0 | 0.00 | 0.00 | 0.00 | 92 | 1010.6 |
| 20260904044457 | 65 | 63 | 6.0 | 8.0 | 0.00 | 0.00 | 0.00 | 91 | 1010.6 |
| 20260904043725 | 65 | 68 | 7.0 | 13.0 | 0.00 | 0.00 | 0.00 | 91 | 1010.7 |
| 20260904043225 | 65 | 69 | 7.0 | 13.0 | 0.00 | 0.00 | 0.00 | 91 | 1010.7 |
| 20260904042956 | 65 | 75 | 6.0 | 9.0 | 0.00 | 0.00 | 0.00 | 91 | 1010.6 |
| 20260904042226 | 65 | 73 | 5.0 | 9.0 | 0.00 | 0.00 | 0.00 | 91 | 1010.7 |
| 20260904041725 | 66 | 58 | 6.0 | 9.0 | 0.00 | 0.00 | 0.00 | 90 | 1010.8 |
| 20260904041222 | 66 | 54 | 6.0 | 9.0 | 0.00 | 0.00 | 0.00 | 90 | 1010.8 |
| 20260904040954 | 66 | 67 | 6.0 | 9.0 | 0.00 | 0.00 | 0.00 | 90 | 1010.8 |
| 20260904040224 | 66 | 78 | 6.0 | 9.0 | 0.00 | 0.00 | 0.00 | 90 | 1010.9 |
| 20260904035953 | 67 | 57 | 6.0 | 9.0 | 0.00 | 0.00 | 0.00 | 91 | 1010.8 |
| 20260904035451 | 67 | 68 | 6.0 | 9.0 | 0.00 | 0.00 | 0.00 | 90 | 1010.8 |
| 20260904034721 | 67 | 12 | 6.0 | 9.0 | 0.00 | 0.00 | 0.00 | 90 | 1011.1 |
| 20260904034220 | 67 | 46 | 5.0 | 8.0 | 0.00 | 0.00 | 0.00 | 90 | 1010.9 |
| 20260904033950 | 67 | 49 | 6.0 | 9.0 | 0.00 | 0.00 | 0.00 | 89 | 1010.6 |
| 20260904033219 | 67 | 65 | 7.0 | 10.0 | 0.00 | 0.00 | 0.00 | 88 | 1010.5 |
| 20260904032718 | 68 | 88 | 6.0 | 10.0 | 0.00 | 0.00 | 0.00 | 88 | 1010.5 |
| 20260904032218 | 68 | 86 | 7.0 | 13.0 | 0.00 | 0.00 | 0.00 | 89 | 1010.6 |
| 20260904031720 | 68 | 58 | 10.0 | 14.0 | 0.00 | 0.00 | 0.00 | 87 | 1010.7 |
| 20260904031219 | 69 | 58 | 11.0 | 15.0 | 0.00 | 0.00 | 0.00 | 88 | 1010.9 |
| 20260904030950 | 69 | 14 | 11.0 | 15.0 | 0.00 | 0.00 | 0.00 | 86 | 1011.1 |
| 20260904030212 | 70 | 36 | 10.0 | 15.0 | 0.00 | 0.00 | 0.00 | 87 | 1011.1 |
| 20260904025705 | 70 | 58 | 9.0 | 13.0 | 0.00 | 0.00 | 0.00 | 87 | 1010.6 |
| 20260904025204 | 71 | 43 | 10.0 | 17.0 | 0.00 | 0.00 | 0.00 | 85 | 1010.3 |
| 20260904024702 | 72 | 32 | 11.0 | 17.0 | 0.00 | 0.00 | 0.00 | 85 | 1010.1 |
| 20260904024202 | 74 | 33 | 7.0 | 15.0 | 0.00 | 0.00 | 0.00 | 82 | 1010.3 |
| 20260904023703 | 76 | 44 | 5.0 | 8.0 | 0.00 | 0.00 | 0.00 | 84 | 1010.1 |
| 20260904023200 | 76 | 66 | 3.0 | 6.0 | 0.00 | 0.00 | 0.00 | 84 | 1009.9 |
| 20260904022703 | 76 | 77 | 2.0 | 5.0 | 0.00 | 0.00 | 0.00 | 84 | 1009.9 |
| 20260904022205 | 76 | 94 | 3.0 | 5.0 | 0.00 | 0.00 | 0.00 | 83 | 1009.9 |
| 20260904022201 | 76 | 86 | 2.0 | 5.0 | 0.00 | 0.00 | 0.00 | 82 | 1009.9 |
| 20260904021200 | 76 | 73 | 4.0 | 7.0 | 0.00 | 0.00 | 0.00 | 82 | 1009.9 |
| 20260904020659 | 76 | 86 | 4.0 | 7.0 | 0.00 | 0.00 | 0.00 | 82 | 1010.0 |
| 20260904020157 | 76 | 66 | 4.0 | 6.0 | 0.00 | 0.00 | 0.00 | 83 | 1010.0 |
| 20260904015656 | 76 | 63 | 4.0 | 6.0 | 0.00 | 0.00 | 0.00 | 82 | 1010.0 |
| 20260904015157 | 76 | 77 | 3.0 | 6.0 | 0.00 | 0.00 | 0.00 | 82 | 1009.9 |
| 20260904014656 | 76 | 86 | 1.0 | 4.0 | 0.00 | 0.00 | 0.00 | 82 | 1009.8 |
| 20260904014156 | 76 | 105 | 1.0 | 4.0 | 0.00 | 0.00 | 0.00 | 81 | 1009.5 |
| 20260904013702 | 76 | 129 | 1.0 | 5.0 | 0.00 | 0.00 | 0.00 | 80 | 1009.4 |
| 20260904013658 | 76 | 146 | 1.0 | 4.0 | 0.00 | 0.00 | 0.00 | 81 | 1009.5 |
| 20260904012651 | 76 | 136 | 1.0 | 5.0 | 0.00 | 0.00 | 0.00 | 80 | 1009.3 |
| 20260904012415 | 77 | 113 | 1.0 | 6.0 | 0.00 | 0.00 | 0.00 | 79 | 1009.3 |
| 20260904011638 | 77 | 98 | 2.0 | 7.0 | 0.00 | 0.00 | 0.00 | 79 | 1009.3 |
| 20260904011133 | 77 | 129 | 2.0 | 6.0 | 0.00 | 0.00 | 0.00 | 78 | 1009.3 |
| 20260904010627 | 77 | 103 | 2.0 | 6.0 | 0.00 | 0.00 | 0.00 | 77 | 1009.3 |
| 20260904010121 | 77 | 120 | 2.0 | 7.0 | 0.00 | 0.00 | 0.00 | 77 | 1009.3 |
| 20260904005615 | 77 | 113 | 2.0 | 7.0 | 0.00 | 0.00 | 0.00 | 77 | 1009.3 |
| 20260904005109 | 78 | 94 | 2.0 | 7.0 | 0.00 | 0.00 | 0.00 | 76 | 1009.4 |
| 20260904004603 | 78 | 139 | 2.0 | 5.0 | 0.00 | 0.00 | 0.00 | 75 | 1009.4 |
| 20260904004057 | 78 | 122 | 1.0 | 5.0 | 0.00 | 0.00 | 0.00 | 75 | 1009.3 |
| 20260904003552 | 78 | 230 | 1.0 | 7.0 | 0.00 | 0.00 | 0.00 | 75 | 1009.1 |
| 20260904003045 | 78 | 126 | 2.0 | 7.0 | 0.00 | 0.00 | 0.00 | 75 | 1009.1 |
| 20260904002538 | 78 | 207 | 1.0 | 3.0 | 0.00 | 0.00 | 0.00 | 74 | 1009.1 |
| 20260904002033 | 78 | 146 | 1.0 | 5.0 | 0.00 | 0.00 | 0.00 | 74 | 1009.1 |
| 20260904001526 | 79 | 146 | 1.0 | 5.0 | 0.00 | 0.00 | 0.00 | 73 | 1009.1 |
| 20260904001021 | 79 | 103 | 1.0 | 7.0 | 0.00 | 0.00 | 0.00 | 74 | 1009.0 |
| 20260904000515 | 79 | 115 | 1.0 | 7.0 | 0.00 | 0.00 | 0.00 | 73 | 1008.9 |
| 20260904000009 | 79 | 159 | 1.0 | 4.0 | 0.00 | 0.00 | 0.00 | 73 | 1008.9 |
| 20260903235503 | 79 | 110 | 1.0 | 4.0 | 0.00 | 0.00 | 0.00 | 73 | 1008.9 |
| 20260903234957 | 79 | 107 | 1.0 | 5.0 | 0.00 | 0.00 | 0.00 | 72 | 1008.9 |
| 20260903234451 | 80 | 132 | 1.0 | 5.0 | 0.00 | 0.00 | 0.00 | 72 | 1008.8 |
| 20260903233945 | 80 | 139 | 1.0 | 3.0 | 0.00 | 0.00 | 0.00 | 71 | 1008.8 |
| 20260903233439 | 80 | 133 | 1.0 | 6.0 | 0.00 | 0.00 | 0.00 | 71 | 1008.8 |
| 20260903232932 | 80 | 105 | 1.0 | 6.0 | 0.00 | 0.00 | 0.00 | 70 | 1008.9 |
| 20260903232427 | 80 | 137 | 1.0 | 4.0 | 0.00 | 0.00 | 0.00 | 70 | 1008.9 |
| 20260903232151 | 80 | 136 | 1.0 | 7.0 | 0.00 | 0.00 | 0.00 | 69 | 1008.8 |
| 20260903231414 | 81 | 137 | 2.0 | 8.0 | 0.00 | 0.00 | 0.00 | 68 | 1008.8 |
| 20260903230908 | 81 | 110 | 2.0 | 8.0 | 0.00 | 0.00 | 0.00 | 68 | 1008.7 |
| 20260903230403 | 81 | 115 | 2.0 | 7.0 | 0.00 | 0.00 | 0.00 | 68 | 1008.7 |
| 20260903225856 | 82 | 105 | 1.0 | 6.0 | 0.00 | 0.00 | 0.00 | 69 | 1008.6 |
| 20260903225351 | 82 | 104 | 1.0 | 4.0 | 0.00 | 0.00 | 0.00 | 70 | 1008.6 |
| 20260903224846 | 82 | 82 | 1.0 | 6.0 | 0.00 | 0.00 | 0.00 | 70 | 1008.7 |
| 20260903224612 | 82 | 97 | 1.0 | 6.0 | 0.00 | 0.00 | 0.00 | 69 | 1008.7 |
| 20260903223832 | 83 | 44 | 2.0 | 8.0 | 0.00 | 0.00 | 0.00 | 69 | 1008.7 |
| 20260903223327 | 83 | 103 | 3.0 | 9.0 | 0.00 | 0.00 | 0.00 | 68 | 1008.7 |
| 20260903222821 | 83 | 169 | 3.0 | 9.0 | 0.00 | 0.00 | 0.00 | 68 | 1008.5 |
| 20260903222315 | 84 | 87 | 3.0 | 9.0 | 0.00 | 0.00 | 0.00 | 67 | 1008.4 |
| 20260903222041 | 84 | 99 | 2.0 | 9.0 | 0.00 | 0.00 | 0.00 | 68 | 1008.6 |
| 20260903221303 | 84 | 180 | 2.0 | 7.0 | 0.00 | 0.00 | 0.00 | 68 | 1008.6 |
| 20260903220757 | 84 | 89 | 2.0 | 6.0 | 0.00 | 0.00 | 0.00 | 67 | 1008.6 |
| 20260903220251 | 83 | 152 | 1.0 | 6.0 | 0.00 | 0.00 | 0.00 | 67 | 1008.6 |
| 20260903215745 | 83 | 154 | 1.0 | 6.0 | 0.00 | 0.00 | 0.00 | 67 | 1008.6 |
| 20260903215239 | 83 | 115 | 1.0 | 3.0 | 0.00 | 0.00 | 0.00 | 67 | 1008.8 |
| 20260903214733 | 84 | 139 | 2.0 | 8.0 | 0.00 | 0.00 | 0.00 | 67 | 1008.7 |
| 20260903214227 | 84 | 105 | 2.0 | 8.0 | 0.00 | 0.00 | 0.00 | 65 | 1008.5 |
| 20260903213721 | 84 | 127 | 2.0 | 9.0 | 0.00 | 0.00 | 0.00 | 66 | 1008.5 |
| 20260903213214 | 84 | 129 | 2.0 | 9.0 | 0.00 | 0.00 | 0.00 | 65 | 1008.3 |
| 20260903212711 | 85 | 112 | 3.0 | 9.0 | 0.00 | 0.00 | 0.00 | 66 | 1008.4 |
| 20260903212705 | 85 | 139 | 4.0 | 9.0 | 0.00 | 0.00 | 0.00 | 63 | 1008.3 |
| 20260903211657 | 86 | 117 | 3.0 | 8.0 | 0.00 | 0.00 | 0.00 | 62 | 1008.3 |
| 20260903211153 | 86 | 205 | 3.0 | 12.0 | 0.00 | 0.00 | 0.00 | 62 | 1008.3 |
| 20260903210924 | 87 | 137 | 3.0 | 12.0 | 0.00 | 0.00 | 0.00 | 61 | 1008.1 |
| 20260903210153 | 87 | 129 | 3.0 | 10.0 | 0.00 | 0.00 | 0.00 | 64 | 1008.0 |
| 20260903205651 | 86 | 75 | 3.0 | 10.0 | 0.00 | 0.00 | 0.00 | 61 | 1008.1 |
| 20260903205151 | 86 | 86 | 3.0 | 9.0 | 0.00 | 0.00 | 0.00 | 61 | 1008.2 |
| 20260903204650 | 86 | 97 | 3.0 | 9.0 | 0.00 | 0.00 | 0.00 | 62 | 1008.2 |
| 20260903204149 | 87 | 141 | 3.0 | 9.0 | 0.00 | 0.00 | 0.00 | 60 | 1008.3 |
| 20260903203921 | 87 | 224 | 3.0 | 9.0 | 0.00 | 0.00 | 0.00 | 62 | 1008.3 |
| 20260903203420 | 87 | 108 | 5.0 | 12.0 | 0.00 | 0.00 | 0.00 | 62 | 1008.5 |
| 20260903202650 | 87 | 111 | 4.0 | 12.0 | 0.00 | 0.00 | 0.00 | 61 | 1008.5 |
| 20260903202156 | 87 | 100 | 4.0 | 9.0 | 0.00 | 0.00 | 0.00 | 61 | 1008.8 |
| 20260903202149 | 87 | 127 | 4.0 | 9.0 | 0.00 | 0.00 | 0.00 | 61 | 1008.7 |
| 20260903201420 | 87 | 214 | 4.0 | 10.0 | 0.00 | 0.00 | 0.00 | 61 | 1008.8 |
| 20260903201311 | 87 | 101 | 3.0 | 10.0 | 0.00 | 0.00 | 0.00 | 61 | 1008.8 |
| 20260903200151 | 88 | 92 | 2.0 | 7.0 | 0.00 | 0.00 | 0.00 | 59 | 1008.8 |
| 20260903195651 | 88 | 123 | 2.0 | 8.0 | 0.00 | 0.00 | 0.00 | 59 | 1008.9 |
| 20260903195421 | 88 | 224 | 2.0 | 9.0 | 0.00 | 0.00 | 0.00 | 59 | 1008.9 |
| 20260903194643 | 88 | 146 | 2.0 | 9.0 | 0.00 | 0.00 | 0.00 | 60 | 1008.9 |
| 20260903194143 | 87 | 153 | 2.0 | 6.0 | 0.00 | 0.00 | 0.00 | 62 | 1009.0 |
| 20260903193917 | 87 | 77 | 3.0 | 12.0 | 0.00 | 0.00 | 0.00 | 63 | 1009.0 |
| 20260903193144 | 86 | 143 | 3.0 | 12.0 | 0.00 | 0.00 | 0.00 | 61 | 1009.1 |
| 20260903192643 | 86 | 164 | 3.0 | 12.0 | 0.00 | 0.00 | 0.00 | 62 | 1009.0 |
| 20260903192146 | 86 | 176 | 3.0 | 9.0 | 0.00 | 0.00 | 0.00 | 61 | 1008.9 |
| 20260903191645 | 85 | 128 | 3.0 | 7.0 | 0.00 | 0.00 | 0.00 | 67 | 1009.0 |
| 20260903191144 | 84 | 109 | 4.0 | 8.0 | 0.00 | 0.00 | 0.00 | 72 | 1009.2 |
| 20260903190649 | 84 | 108 | 5.0 | 9.0 | 0.00 | 0.00 | 0.00 | 73 | 1009.2 |
| 20260903190413 | 83 | 108 | 6.0 | 10.0 | 0.00 | 0.00 | 0.00 | 73 | 1009.2 |
| 20260903185914 | 83 | 77 | 5.0 | 10.0 | 0.00 | 0.00 | 0.00 | 72 | 1009.3 |
| 20260903185142 | 83 | 119 | 5.0 | 10.0 | 0.00 | 0.00 | 0.00 | 73 | 1009.4 |
| 20260903184640 | 83 | 85 | 4.0 | 10.0 | 0.00 | 0.00 | 0.00 | 75 | 1009.5 |
| 20260903184139 | 83 | 98 | 4.0 | 11.0 | 0.00 | 0.00 | 0.00 | 72 | 1009.5 |
| 20260903183642 | 82 | 105 | 4.0 | 11.0 | 0.00 | 0.00 | 0.00 | 74 | 1009.8 |
| 20260903183140 | 82 | 87 | 4.0 | 9.0 | 0.00 | 0.00 | 0.00 | 75 | 1009.8 |
| 20260903182641 | 82 | 102 | 4.0 | 9.0 | 0.00 | 0.00 | 0.00 | 74 | 1009.9 |
| 20260903182413 | 81 | 122 | 5.0 | 11.0 | 0.00 | 0.00 | 0.00 | 74 | 1009.9 |
| 20260903181641 | 81 | 101 | 5.0 | 11.0 | 0.00 | 0.00 | 0.00 | 74 | 1010.0 |
| 20260903181141 | 81 | 75 | 5.0 | 9.0 | 0.00 | 0.00 | 0.00 | 75 | 1010.1 |
| 20260903180641 | 80 | 193 | 5.0 | 10.0 | 0.00 | 0.00 | 0.00 | 75 | 1010.3 |
| 20260903180139 | 80 | 94 | 6.0 | 10.0 | 0.00 | 0.00 | 0.00 | 76 | 1010.4 |
| 20260903175912 | 80 | 55 | 6.0 | 10.0 | 0.00 | 0.00 | 0.00 | 77 | 1010.2 |
| 20260903175139 | 79 | 96 | 6.0 | 9.0 | 0.00 | 0.00 | 0.00 | 77 | 1010.3 |
| 20260903174641 | 79 | 74 | 5.0 | 9.0 | 0.00 | 0.00 | 0.00 | 77 | 1010.3 |
| 20260903174140 | 79 | 134 | 4.0 | 9.0 | 0.00 | 0.00 | 0.00 | 77 | 1010.4 |
| 20260903173639 | 78 | 96 | 5.0 | 9.0 | 0.00 | 0.00 | 0.00 | 79 | 1010.4 |
| 20260903173144 | 78 | 109 | 5.0 | 11.0 | 0.00 | 0.00 | 0.00 | 78 | 1010.6 |
| 20260903173139 | 78 | 80 | 6.0 | 11.0 | 0.00 | 0.00 | 0.00 | 78 | 1010.5 |
| 20260903172140 | 78 | 65 | 4.0 | 8.0 | 0.00 | 0.00 | 0.00 | 77 | 1010.7 |
| 20260903171639 | 78 | 76 | 4.0 | 8.0 | 0.00 | 0.00 | 0.00 | 80 | 1010.7 |
| 20260903171140 | 77 | 116 | 4.0 | 9.0 | 0.00 | 0.00 | 0.00 | 79 | 1010.8 |
| 20260903170639 | 77 | 94 | 4.0 | 9.0 | 0.00 | 0.00 | 0.00 | 79 | 1010.9 |
| 20260903170137 | 77 | 139 | 5.0 | 10.0 | 0.00 | 0.00 | 0.00 | 80 | 1011.0 |
| 20260903165638 | 76 | 108 | 6.0 | 10.0 | 0.00 | 0.00 | 0.00 | 79 | 1011.1 |
| 20260903165135 | 76 | 79 | 6.0 | 9.0 | 0.00 | 0.00 | 0.00 | 80 | 1011.2 |
| 20260903164636 | 76 | 96 | 5.0 | 9.0 | 0.00 | 0.00 | 0.00 | 79 | 1011.2 |
| 20260903164135 | 76 | 82 | 5.0 | 9.0 | 0.00 | 0.00 | 0.00 | 81 | 1011.2 |
| 20260903163635 | 76 | 82 | 5.0 | 8.0 | 0.00 | 0.00 | 0.00 | 80 | 1011.3 |
| 20260903163136 | 76 | 94 | 4.0 | 9.0 | 0.00 | 0.00 | 0.00 | 80 | 1011.3 |
| 20260903162636 | 76 | 78 | 5.0 | 9.0 | 0.00 | 0.00 | 0.00 | 80 | 1011.3 |
| 20260903162131 | 76 | 72 | 4.0 | 8.0 | 0.00 | 0.00 | 0.00 | 79 | 1011.3 |
| 20260903161629 | 75 | 124 | 5.0 | 8.0 | 0.00 | 0.00 | 0.00 | 81 | 1011.3 |
| 20260903161127 | 75 | 82 | 6.0 | 10.0 | 0.00 | 0.00 | 0.00 | 80 | 1011.2 |
| 20260903160627 | 75 | 79 | 5.0 | 10.0 | 0.00 | 0.00 | 0.00 | 80 | 1011.2 |
| 20260903160128 | 75 | 82 | 4.0 | 9.0 | 0.00 | 0.00 | 0.00 | 79 | 1011.3 |
| 20260903155628 | 74 | 98 | 4.0 | 9.0 | 0.00 | 0.00 | 0.00 | 79 | 1011.3 |
| 20260903155128 | 74 | 128 | 4.0 | 7.0 | 0.00 | 0.00 | 0.00 | 80 | 1011.3 |
| 20260903154857 | 74 | 85 | 5.0 | 8.0 | 0.00 | 0.00 | 0.00 | 80 | 1011.5 |
| 20260903154126 | 74 | 94 | 5.0 | 8.0 | 0.00 | 0.00 | 0.00 | 79 | 1011.4 |
| 20260903153858 | 74 | 90 | 6.0 | 10.0 | 0.00 | 0.00 | 0.00 | 79 | 1011.4 |
| 20260903153123 | 74 | 99 | 6.0 | 10.0 | 0.00 | 0.00 | 0.00 | 80 | 1011.3 |
| 20260903152624 | 74 | 91 | 5.0 | 10.0 | 0.00 | 0.00 | 0.00 | 78 | 1011.4 |
| 20260903152357 | 74 | 148 | 5.0 | 9.0 | 0.00 | 0.00 | 0.00 | 78 | 1011.3 |
| 20260903151622 | 74 | 58 | 5.0 | 9.0 | 0.00 | 0.00 | 0.00 | 81 | 1011.1 |
| 20260903151122 | 74 | 87 | 5.0 | 8.0 | 0.00 | 0.00 | 0.00 | 80 | 1011.2 |
| 20260903150623 | 73 | 87 | 5.0 | 9.0 | 0.00 | 0.00 | 0.00 | 81 | 1011.1 |
| 20260903150352 | 73 | 84 | 5.0 | 9.0 | 0.00 | 0.00 | 0.00 | 80 | 1010.9 |
| 20260903145623 | 73 | 77 | 4.0 | 9.0 | 0.00 | 0.00 | 0.00 | 79 | 1011.2 |
| 20260903145617 | 73 | 109 | 4.0 | 8.0 | 0.00 | 0.00 | 0.00 | 78 | 1011.2 |
| 20260903144843 | 73 | 93 | 5.0 | 8.0 | 0.00 | 0.00 | 0.00 | 78 | 1011.2 |
| 20260903144104 | 72 | 94 | 4.0 | 8.0 | 0.00 | 0.00 | 0.00 | 78 | 1011.2 |
| 20260903143558 | 72 | 91 | 4.0 | 10.0 | 0.00 | 0.00 | 0.00 | 76 | 1011.3 |
| 20260903143052 | 72 | 148 | 4.0 | 10.0 | 0.00 | 0.00 | 0.00 | 77 | 1011.4 |
| 20260903142546 | 72 | 86 | 5.0 | 8.0 | 0.00 | 0.00 | 0.00 | 79 | 1011.4 |
| 20260903142039 | 71 | 101 | 5.0 | 8.0 | 0.00 | 0.00 | 0.00 | 78 | 1011.4 |
| 20260903141534 | 71 | 73 | 4.0 | 8.0 | 0.00 | 0.00 | 0.00 | 78 | 1011.4 |
| 20260903141029 | 70 | 91 | 4.0 | 8.0 | 0.00 | 0.00 | 0.00 | 79 | 1011.5 |
| 20260903141023 | 70 | 79 | 4.0 | 8.0 | 0.00 | 0.00 | 0.00 | 78 | 1011.6 |
| 20260903140016 | 70 | 87 | 5.0 | 9.0 | 0.00 | 0.00 | 0.00 | 79 | 1011.6 |
| 20260903135740 | 69 | 99 | 5.0 | 9.0 | 0.00 | 0.00 | 0.00 | 80 | 1011.6 |
| 20260903135004 | 69 | 65 | 6.0 | 10.0 | 0.00 | 0.00 | 0.00 | 81 | 1011.7 |
| 20260903134458 | 68 | 83 | 6.0 | 11.0 | 0.00 | 0.00 | 0.00 | 80 | 1011.7 |
| 20260903133952 | 68 | 70 | 6.0 | 11.0 | 0.00 | 0.00 | 0.00 | 81 | 1011.8 |
| 20260903133446 | 68 | 67 | 5.0 | 8.0 | 0.00 | 0.00 | 0.00 | 80 | 1011.8 |
| 20260903133211 | 68 | 56 | 5.0 | 8.0 | 0.00 | 0.00 | 0.00 | 82 | 1012.0 |
| 20260903132434 | 67 | 68 | 5.0 | 8.0 | 0.00 | 0.00 | 0.00 | 82 | 1012.0 |
| 20260903131928 | 67 | 75 | 4.0 | 8.0 | 0.00 | 0.00 | 0.00 | 81 | 1012.0 |
| 20260903131422 | 67 | 49 | 4.0 | 6.0 | 0.00 | 0.00 | 0.00 | 82 | 1012.0 |
| 20260903130916 | 66 | 67 | 4.0 | 6.0 | 0.00 | 0.00 | 0.00 | 82 | 1012.1 |
| 20260903130641 | 66 | 86 | 4.0 | 6.0 | 0.00 | 0.00 | 0.00 | 83 | 1012.0 |
| 20260903130134 | 66 | 59 | 3.0 | 6.0 | 0.00 | 0.00 | 0.00 | 84 | 1012.0 |
| 20260903125629 | 65 | 65 | 4.0 | 6.0 | 0.00 | 0.00 | 0.00 | 84 | 1012.0 |
| 20260903124852 | 65 | 54 | 5.0 | 7.0 | 0.00 | 0.00 | 0.00 | 84 | 1012.0 |
| 20260903124346 | 65 | 53 | 5.0 | 7.0 | 0.00 | 0.00 | 0.00 | 85 | 1012.1 |
| 20260903123840 | 65 | 35 | 4.0 | 7.0 | 0.00 | 0.00 | 0.00 | 84 | 1012.0 |
| 20260903123333 | 65 | 52 | 4.0 | 6.0 | 0.00 | 0.00 | 0.00 | 85 | 1012.0 |
| 20260903122829 | 65 | 20 | 4.0 | 7.0 | 0.00 | 0.00 | 0.00 | 84 | 1011.9 |
| 20260903122322 | 66 | 34 | 3.0 | 7.0 | 0.00 | 0.00 | 0.00 | 83 | 1011.9 |
| 20260903121815 | 66 | 55 | 3.0 | 6.0 | 0.00 | 0.00 | 0.00 | 82 | 1011.9 |
| 20260903121310 | 66 | 23 | 3.0 | 5.0 | 0.00 | 0.00 | 0.00 | 82 | 1011.9 |
| 20260903121034 | 66 | 41 | 2.0 | 4.0 | 0.00 | 0.00 | 0.00 | 82 | 1011.9 |
| 20260903120257 | 66 | 59 | 2.0 | 4.0 | 0.00 | 0.00 | 0.00 | 82 | 1011.9 |
| 20260903115752 | 66 | 75 | 2.0 | 4.0 | 0.00 | 0.00 | 0.00 | 82 | 1011.9 |
| 20260903115245 | 66 | 76 | 2.0 | 4.0 | 0.00 | 0.00 | 0.00 | 82 | 1011.8 |
| 20260903115010 | 65 | 77 | 1.0 | 4.0 | 0.00 | 0.00 | 0.00 | 83 | 1011.8 |
| 20260903114234 | 65 | 99 | 1.0 | 4.0 | 0.00 | 0.00 | 0.00 | 82 | 1011.8 |
| 20260903113728 | 66 | 116 | 2.0 | 4.0 | 0.00 | 0.00 | 0.00 | 82 | 1011.9 |
| 20260903113222 | 66 | 58 | 2.0 | 4.0 | 0.00 | 0.00 | 0.00 | 82 | 1011.8 |
| 20260903112948 | 66 | 44 | 2.0 | 4.0 | 0.00 | 0.00 | 0.00 | 81 | 1011.7 |
| 20260903112212 | 66 | 64 | 3.0 | 5.0 | 0.00 | 0.00 | 0.00 | 82 | 1011.7 |
| 20260903112207 | 66 | 51 | 4.0 | 5.0 | 0.00 | 0.00 | 0.00 | 80 | 1011.6 |
| 20260903111158 | 66 | 56 | 4.0 | 5.0 | 0.00 | 0.00 | 0.00 | 80 | 1011.6 |
| 20260903110652 | 66 | 63 | 4.0 | 7.0 | 0.00 | 0.00 | 0.00 | 80 | 1011.6 |
| 20260903110146 | 66 | 60 | 4.0 | 6.0 | 0.00 | 0.00 | 0.00 | 80 | 1011.4 |
| 20260903105640 | 66 | 79 | 3.0 | 5.0 | 0.00 | 0.00 | 0.00 | 80 | 1011.5 |
| 20260903105406 | 67 | 80 | 4.0 | 6.0 | 0.00 | 0.00 | 0.00 | 80 | 1011.4 |
| 20260903104634 | 67 | 77 | 4.0 | 7.0 | 0.00 | 0.00 | 0.00 | 79 | 1011.5 |
| 20260903104131 | 67 | 61 | 4.0 | 7.0 | 0.00 | 0.00 | 0.00 | 79 | 1011.5 |
| 20260903103628 | 67 | 67 | 4.0 | 7.0 | 0.00 | 0.00 | 0.00 | 79 | 1011.5 |
| 20260903103129 | 67 | 57 | 3.0 | 7.0 | 0.00 | 0.00 | 0.00 | 79 | 1011.6 |
| 20260903102630 | 67 | 70 | 3.0 | 5.0 | 0.00 | 0.00 | 0.00 | 79 | 1011.7 |
| 20260903102128 | 67 | 64 | 3.0 | 5.0 | 0.00 | 0.00 | 0.00 | 78 | 1011.7 |
| 20260903101630 | 67 | 75 | 4.0 | 5.0 | 0.00 | 0.00 | 0.00 | 79 | 1011.6 |
| 20260903101358 | 67 | 71 | 4.0 | 6.0 | 0.00 | 0.00 | 0.00 | 79 | 1011.3 |
| 20260903100626 | 67 | 83 | 4.0 | 6.0 | 0.00 | 0.00 | 0.00 | 79 | 1011.2 |
| 20260903100359 | 67 | 57 | 4.0 | 6.0 | 0.00 | 0.00 | 0.00 | 79 | 1011.3 |
| 20260903095625 | 67 | 58 | 4.0 | 6.0 | 0.00 | 0.00 | 0.00 | 81 | 1011.3 |
| 20260903095124 | 67 | 63 | 3.0 | 6.0 | 0.00 | 0.00 | 0.00 | 80 | 1011.4 |
| 20260903094626 | 66 | 79 | 3.0 | 5.0 | 0.00 | 0.00 | 0.00 | 80 | 1011.4 |
| 20260903094124 | 66 | 70 | 3.0 | 4.0 | 0.00 | 0.00 | 0.00 | 80 | 1011.5 |
| 20260903093622 | 67 | 81 | 3.0 | 4.0 | 0.00 | 0.00 | 0.00 | 81 | 1011.6 |
| 20260903093122 | 67 | 98 | 3.0 | 5.0 | 0.00 | 0.00 | 0.00 | 80 | 1011.4 |
| 20260903092622 | 67 | 91 | 3.0 | 5.0 | 0.00 | 0.00 | 0.00 | 80 | 1011.4 |
| 20260903092120 | 67 | 76 | 3.0 | 5.0 | 0.00 | 0.00 | 0.00 | 80 | 1011.5 |
| 20260903091622 | 67 | 87 | 3.0 | 5.0 | 0.00 | 0.00 | 0.00 | 79 | 1011.5 |
| 20260903091120 | 67 | 90 | 3.0 | 6.0 | 0.00 | 0.00 | 0.00 | 79 | 1011.6 |
| 20260903090616 | 67 | 74 | 3.0 | 6.0 | 0.00 | 0.00 | 0.00 | 78 | 1011.6 |
| 20260903090116 | 67 | 80 | 4.0 | 6.0 | 0.00 | 0.00 | 0.00 | 79 | 1011.6 |
| 20260903085617 | 67 | 72 | 4.0 | 6.0 | 0.00 | 0.00 | 0.00 | 78 | 1011.6 |
| 20260903085118 | 68 | 59 | 4.0 | 6.0 | 0.00 | 0.00 | 0.00 | 78 | 1011.6 |
| 20260903084616 | 68 | 63 | 4.0 | 6.0 | 0.00 | 0.00 | 0.00 | 78 | 1011.7 |
| 20260903084115 | 68 | 74 | 4.0 | 5.0 | 0.00 | 0.00 | 0.00 | 78 | 1011.6 |